sensor_id;sensor_type;location;lat;lon;timestamp;P1;durP1;ratioP1;P2;durP2;ratioP2
46931;SDS011;32670;51.464;11.964;2023-05-07T00:01:13;4.27;;;3.60;;
46931;SDS011;32670;51.464;11.964;2023-05-07T00:03:39;4.33;;;3.03;;
46931;SDS011;32670;51.464;11.964;2023-05-07T00:06:04;4.07;;;3.57;;
46931;SDS011;32670;51.464;11.964;2023-05-07T00:08:30;4.60;;;3.50;;
46931;SDS011;32670;51.464;11.964;2023-05-07T00:10:56;4.90;;;3.40;;
46931;SDS011;32670;51.464;11.964;2023-05-07T00:13:21;4.73;;;3.30;;
46931;SDS011;32670;51.464;11.964;2023-05-07T00:15:46;3.40;;;3.10;;
46931;SDS011;32670;51.464;11.964;2023-05-07T00:18:12;4.27;;;3.37;;
46931;SDS011;32670;51.464;11.964;2023-05-07T00:20:37;3.30;;;3.00;;
46931;SDS011;32670;51.464;11.964;2023-05-07T00:23:03;4.20;;;3.33;;
46931;SDS011;32670;51.464;11.964;2023-05-07T00:25:28;3.27;;;2.93;;
46931;SDS011;32670;51.464;11.964;2023-05-07T00:27:54;3.33;;;3.03;;
46931;SDS011;32670;51.464;11.964;2023-05-07T00:30:19;4.33;;;3.30;;
46931;SDS011;32670;51.464;11.964;2023-05-07T00:32:45;3.53;;;3.30;;
46931;SDS011;32670;51.464;11.964;2023-05-07T00:35:10;3.50;;;3.20;;
46931;SDS011;32670;51.464;11.964;2023-05-07T00:37:36;3.30;;;3.00;;
46931;SDS011;32670;51.464;11.964;2023-05-07T00:40:02;3.17;;;2.87;;
46931;SDS011;32670;51.464;11.964;2023-05-07T00:42:29;3.10;;;2.90;;
46931;SDS011;32670;51.464;11.964;2023-05-07T00:44:57;3.57;;;3.27;;
46931;SDS011;32670;51.464;11.964;2023-05-07T00:47:22;3.33;;;3.13;;
46931;SDS011;32670;51.464;11.964;2023-05-07T00:49:48;3.90;;;2.80;;
46931;SDS011;32670;51.464;11.964;2023-05-07T00:52:15;3.40;;;3.10;;
46931;SDS011;32670;51.464;11.964;2023-05-07T00:54:42;3.33;;;3.03;;
46931;SDS011;32670;51.464;11.964;2023-05-07T00:57:07;3.50;;;3.20;;
46931;SDS011;32670;51.464;11.964;2023-05-07T00:59:36;3.53;;;2.80;;
46931;SDS011;32670;51.464;11.964;2023-05-07T01:02:01;3.30;;;3.10;;
46931;SDS011;32670;51.464;11.964;2023-05-07T01:04:27;3.43;;;3.13;;
46931;SDS011;32670;51.464;11.964;2023-05-07T01:06:53;3.10;;;2.90;;
46931;SDS011;32670;51.464;11.964;2023-05-07T01:09:21;3.30;;;3.00;;
46931;SDS011;32670;51.464;11.964;2023-05-07T01:11:48;4.00;;;3.10;;
46931;SDS011;32670;51.464;11.964;2023-05-07T01:14:15;3.20;;;2.90;;
46931;SDS011;32670;51.464;11.964;2023-05-07T01:16:41;3.03;;;2.73;;
46931;SDS011;32670;51.464;11.964;2023-05-07T01:19:07;2.80;;;2.60;;
46931;SDS011;32670;51.464;11.964;2023-05-07T01:21:35;3.43;;;3.17;;
46931;SDS011;32670;51.464;11.964;2023-05-07T01:24:02;3.60;;;2.90;;
46931;SDS011;32670;51.464;11.964;2023-05-07T01:26:28;3.10;;;2.80;;
46931;SDS011;32670;51.464;11.964;2023-05-07T01:28:54;3.10;;;2.90;;
46931;SDS011;32670;51.464;11.964;2023-05-07T01:31:19;3.57;;;2.77;;
46931;SDS011;32670;51.464;11.964;2023-05-07T01:33:45;3.00;;;2.80;;
46931;SDS011;32670;51.464;11.964;2023-05-07T01:36:13;4.30;;;2.97;;
46931;SDS011;32670;51.464;11.964;2023-05-07T01:38:39;3.27;;;2.53;;
46931;SDS011;32670;51.464;11.964;2023-05-07T01:41:06;3.80;;;2.83;;
46931;SDS011;32670;51.464;11.964;2023-05-07T01:43:32;7.80;;;3.00;;
46931;SDS011;32670;51.464;11.964;2023-05-07T01:45:58;4.73;;;2.73;;
46931;SDS011;32670;51.464;11.964;2023-05-07T01:48:24;4.43;;;2.63;;
46931;SDS011;32670;51.464;11.964;2023-05-07T01:50:50;5.63;;;3.10;;
46931;SDS011;32670;51.464;11.964;2023-05-07T01:53:17;4.47;;;3.00;;
46931;SDS011;32670;51.464;11.964;2023-05-07T01:55:42;6.73;;;3.20;;
46931;SDS011;32670;51.464;11.964;2023-05-07T01:58:08;4.47;;;3.00;;
46931;SDS011;32670;51.464;11.964;2023-05-07T02:00:33;4.50;;;3.17;;
46931;SDS011;32670;51.464;11.964;2023-05-07T02:02:59;3.50;;;3.20;;
46931;SDS011;32670;51.464;11.964;2023-05-07T02:05:24;3.37;;;3.03;;
46931;SDS011;32670;51.464;11.964;2023-05-07T02:07:50;3.30;;;3.10;;
46931;SDS011;32670;51.464;11.964;2023-05-07T02:10:15;6.77;;;3.17;;
46931;SDS011;32670;51.464;11.964;2023-05-07T02:12:41;3.23;;;2.93;;
46931;SDS011;32670;51.464;11.964;2023-05-07T02:15:07;4.67;;;3.00;;
46931;SDS011;32670;51.464;11.964;2023-05-07T02:17:33;3.40;;;3.10;;
46931;SDS011;32670;51.464;11.964;2023-05-07T02:19:58;4.47;;;3.20;;
46931;SDS011;32670;51.464;11.964;2023-05-07T02:22:24;4.70;;;3.27;;
46931;SDS011;32670;51.464;11.964;2023-05-07T02:24:50;3.30;;;3.00;;
46931;SDS011;32670;51.464;11.964;2023-05-07T02:27:16;3.30;;;3.00;;
46931;SDS011;32670;51.464;11.964;2023-05-07T02:29:41;3.07;;;2.80;;
46931;SDS011;32670;51.464;11.964;2023-05-07T02:32:06;5.37;;;2.90;;
46931;SDS011;32670;51.464;11.964;2023-05-07T02:34:32;5.07;;;3.13;;
46931;SDS011;32670;51.464;11.964;2023-05-07T02:36:58;5.07;;;2.70;;
46931;SDS011;32670;51.464;11.964;2023-05-07T02:39:23;3.40;;;3.10;;
46931;SDS011;32670;51.464;11.964;2023-05-07T02:41:49;6.07;;;3.07;;
46931;SDS011;32670;51.464;11.964;2023-05-07T02:44:14;3.07;;;2.77;;
46931;SDS011;32670;51.464;11.964;2023-05-07T02:46:40;3.70;;;2.97;;
46931;SDS011;32670;51.464;11.964;2023-05-07T02:49:05;3.20;;;2.90;;
46931;SDS011;32670;51.464;11.964;2023-05-07T02:51:31;5.60;;;3.00;;
46931;SDS011;32670;51.464;11.964;2023-05-07T02:53:56;3.77;;;2.73;;
46931;SDS011;32670;51.464;11.964;2023-05-07T02:56:22;3.50;;;2.80;;
46931;SDS011;32670;51.464;11.964;2023-05-07T02:58:47;3.13;;;2.87;;
46931;SDS011;32670;51.464;11.964;2023-05-07T03:01:13;4.13;;;2.80;;
46931;SDS011;32670;51.464;11.964;2023-05-07T03:03:39;4.50;;;2.80;;
46931;SDS011;32670;51.464;11.964;2023-05-07T03:06:04;3.83;;;2.70;;
46931;SDS011;32670;51.464;11.964;2023-05-07T03:08:31;3.93;;;2.90;;
46931;SDS011;32670;51.464;11.964;2023-05-07T03:10:57;5.73;;;2.87;;
46931;SDS011;32670;51.464;11.964;2023-05-07T03:13:22;5.23;;;3.07;;
46931;SDS011;32670;51.464;11.964;2023-05-07T03:15:48;3.50;;;2.60;;
46931;SDS011;32670;51.464;11.964;2023-05-07T03:18:13;3.27;;;2.80;;
46931;SDS011;32670;51.464;11.964;2023-05-07T03:20:39;3.67;;;2.83;;
46931;SDS011;32670;51.464;11.964;2023-05-07T03:23:04;3.50;;;2.73;;
46931;SDS011;32670;51.464;11.964;2023-05-07T03:25:30;3.20;;;2.80;;
46931;SDS011;32670;51.464;11.964;2023-05-07T03:27:55;3.10;;;2.60;;
46931;SDS011;32670;51.464;11.964;2023-05-07T03:30:21;3.77;;;2.80;;
46931;SDS011;32670;51.464;11.964;2023-05-07T03:32:47;3.20;;;2.67;;
46931;SDS011;32670;51.464;11.964;2023-05-07T03:35:12;2.60;;;2.40;;
46931;SDS011;32670;51.464;11.964;2023-05-07T03:37:38;3.13;;;2.83;;
46931;SDS011;32670;51.464;11.964;2023-05-07T03:40:04;3.17;;;2.83;;
46931;SDS011;32670;51.464;11.964;2023-05-07T03:42:30;2.80;;;2.60;;
46931;SDS011;32670;51.464;11.964;2023-05-07T03:44:56;3.17;;;2.70;;
46931;SDS011;32670;51.464;11.964;2023-05-07T03:47:21;3.87;;;2.50;;
46931;SDS011;32670;51.464;11.964;2023-05-07T03:49:47;3.20;;;2.97;;
46931;SDS011;32670;51.464;11.964;2023-05-07T03:52:14;2.63;;;2.43;;
46931;SDS011;32670;51.464;11.964;2023-05-07T03:54:39;2.70;;;2.50;;
46931;SDS011;32670;51.464;11.964;2023-05-07T03:57:05;2.60;;;2.40;;
46931;SDS011;32670;51.464;11.964;2023-05-07T03:59:30;2.57;;;2.33;;
46931;SDS011;32670;51.464;11.964;2023-05-07T04:01:56;2.90;;;2.50;;
46931;SDS011;32670;51.464;11.964;2023-05-07T04:04:21;3.10;;;2.80;;
46931;SDS011;32670;51.464;11.964;2023-05-07T04:06:47;2.60;;;2.40;;
46931;SDS011;32670;51.464;11.964;2023-05-07T04:09:12;2.90;;;2.57;;
46931;SDS011;32670;51.464;11.964;2023-05-07T04:11:38;2.67;;;2.47;;
46931;SDS011;32670;51.464;11.964;2023-05-07T04:14:05;5.90;;;2.60;;
46931;SDS011;32670;51.464;11.964;2023-05-07T04:16:30;2.90;;;2.60;;
46931;SDS011;32670;51.464;11.964;2023-05-07T04:18:56;2.70;;;2.50;;
46931;SDS011;32670;51.464;11.964;2023-05-07T04:21:21;2.70;;;2.50;;
46931;SDS011;32670;51.464;11.964;2023-05-07T04:23:47;2.87;;;2.57;;
46931;SDS011;32670;51.464;11.964;2023-05-07T04:26:13;3.10;;;2.50;;
46931;SDS011;32670;51.464;11.964;2023-05-07T04:28:39;2.50;;;2.30;;
46931;SDS011;32670;51.464;11.964;2023-05-07T04:31:08;3.00;;;2.40;;
46931;SDS011;32670;51.464;11.964;2023-05-07T04:33:33;2.87;;;2.60;;
46931;SDS011;32670;51.464;11.964;2023-05-07T04:36:02;2.60;;;2.40;;
46931;SDS011;32670;51.464;11.964;2023-05-07T04:38:28;2.93;;;2.50;;
46931;SDS011;32670;51.464;11.964;2023-05-07T04:40:57;2.27;;;2.13;;
46931;SDS011;32670;51.464;11.964;2023-05-07T04:43:27;2.70;;;2.50;;
46931;SDS011;32670;51.464;11.964;2023-05-07T04:45:52;3.43;;;2.23;;
46931;SDS011;32670;51.464;11.964;2023-05-07T04:48:18;2.57;;;2.37;;
46931;SDS011;32670;51.464;11.964;2023-05-07T04:50:46;2.50;;;2.27;;
46931;SDS011;32670;51.464;11.964;2023-05-07T04:53:12;2.50;;;2.30;;
46931;SDS011;32670;51.464;11.964;2023-05-07T04:55:38;2.80;;;2.33;;
46931;SDS011;32670;51.464;11.964;2023-05-07T04:58:03;2.40;;;2.20;;
46931;SDS011;32670;51.464;11.964;2023-05-07T05:00:29;2.67;;;2.47;;
46931;SDS011;32670;51.464;11.964;2023-05-07T05:02:55;3.10;;;2.53;;
46931;SDS011;32670;51.464;11.964;2023-05-07T05:05:20;3.10;;;2.37;;
46931;SDS011;32670;51.464;11.964;2023-05-07T05:07:46;2.40;;;2.20;;
46931;SDS011;32670;51.464;11.964;2023-05-07T05:10:11;2.87;;;2.50;;
46931;SDS011;32670;51.464;11.964;2023-05-07T05:12:37;2.50;;;2.30;;
46931;SDS011;32670;51.464;11.964;2023-05-07T05:15:03;2.50;;;2.30;;
46931;SDS011;32670;51.464;11.964;2023-05-07T05:17:29;5.57;;;2.73;;
46931;SDS011;32670;51.464;11.964;2023-05-07T05:19:54;6.60;;;2.43;;
46931;SDS011;32670;51.464;11.964;2023-05-07T05:22:19;4.97;;;2.37;;
46931;SDS011;32670;51.464;11.964;2023-05-07T05:24:45;2.70;;;2.50;;
46931;SDS011;32670;51.464;11.964;2023-05-07T05:27:10;3.23;;;2.80;;
46931;SDS011;32670;51.464;11.964;2023-05-07T05:29:36;2.97;;;2.63;;
46931;SDS011;32670;51.464;11.964;2023-05-07T05:32:01;3.47;;;2.50;;
46931;SDS011;32670;51.464;11.964;2023-05-07T05:34:27;4.37;;;2.73;;
46931;SDS011;32670;51.464;11.964;2023-05-07T05:36:52;3.97;;;2.73;;
46931;SDS011;32670;51.464;11.964;2023-05-07T05:39:18;7.07;;;2.80;;
46931;SDS011;32670;51.464;11.964;2023-05-07T05:41:43;10.67;;;2.80;;
46931;SDS011;32670;51.464;11.964;2023-05-07T05:44:09;6.60;;;6.10;;
46931;SDS011;32670;51.464;11.964;2023-05-07T05:46:34;6.70;;;6.20;;
46931;SDS011;32670;51.464;11.964;2023-05-07T05:49:00;8.00;;;7.20;;
46931;SDS011;32670;51.464;11.964;2023-05-07T05:51:25;7.27;;;6.70;;
46931;SDS011;32670;51.464;11.964;2023-05-07T05:53:51;8.00;;;7.30;;
46931;SDS011;32670;51.464;11.964;2023-05-07T05:56:16;7.80;;;7.00;;
46931;SDS011;32670;51.464;11.964;2023-05-07T05:58:42;7.57;;;6.97;;
46931;SDS011;32670;51.464;11.964;2023-05-07T06:01:07;7.50;;;6.90;;
46931;SDS011;32670;51.464;11.964;2023-05-07T06:03:33;7.10;;;6.50;;
46931;SDS011;32670;51.464;11.964;2023-05-07T06:05:59;7.10;;;6.50;;
46931;SDS011;32670;51.464;11.964;2023-05-07T06:08:25;7.47;;;6.77;;
46931;SDS011;32670;51.464;11.964;2023-05-07T06:10:53;8.20;;;6.33;;
46931;SDS011;32670;51.464;11.964;2023-05-07T06:13:19;7.43;;;6.73;;
46931;SDS011;32670;51.464;11.964;2023-05-07T06:15:44;6.87;;;6.27;;
46931;SDS011;32670;51.464;11.964;2023-05-07T06:18:10;5.93;;;5.53;;
46931;SDS011;32670;51.464;11.964;2023-05-07T06:20:35;6.40;;;5.90;;
46931;SDS011;32670;51.464;11.964;2023-05-07T06:23:01;7.23;;;6.10;;
46931;SDS011;32670;51.464;11.964;2023-05-07T06:25:26;6.00;;;5.50;;
46931;SDS011;32670;51.464;11.964;2023-05-07T06:27:52;6.00;;;5.40;;
46931;SDS011;32670;51.464;11.964;2023-05-07T06:30:17;6.00;;;5.50;;
46931;SDS011;32670;51.464;11.964;2023-05-07T06:32:42;5.83;;;5.23;;
46931;SDS011;32670;51.464;11.964;2023-05-07T06:35:08;5.43;;;4.97;;
46931;SDS011;32670;51.464;11.964;2023-05-07T06:37:33;5.17;;;4.77;;
46931;SDS011;32670;51.464;11.964;2023-05-07T06:39:59;4.83;;;4.43;;
46931;SDS011;32670;51.464;11.964;2023-05-07T06:42:24;4.83;;;4.43;;
46931;SDS011;32670;51.464;11.964;2023-05-07T06:44:50;4.47;;;4.17;;
46931;SDS011;32670;51.464;11.964;2023-05-07T06:47:15;4.40;;;4.10;;
46931;SDS011;32670;51.464;11.964;2023-05-07T06:49:41;4.27;;;3.87;;
46931;SDS011;32670;51.464;11.964;2023-05-07T06:52:06;4.50;;;4.10;;
46931;SDS011;32670;51.464;11.964;2023-05-07T06:54:32;9.30;;;4.10;;
46931;SDS011;32670;51.464;11.964;2023-05-07T06:56:57;8.73;;;4.37;;
46931;SDS011;32670;51.464;11.964;2023-05-07T06:59:23;4.73;;;3.80;;
46931;SDS011;32670;51.464;11.964;2023-05-07T07:01:49;4.43;;;3.87;;
46931;SDS011;32670;51.464;11.964;2023-05-07T07:04:14;6.10;;;3.77;;
46931;SDS011;32670;51.464;11.964;2023-05-07T07:06:40;3.73;;;3.43;;
46931;SDS011;32670;51.464;11.964;2023-05-07T07:09:05;4.50;;;3.70;;
46931;SDS011;32670;51.464;11.964;2023-05-07T07:11:30;4.57;;;4.17;;
46931;SDS011;32670;51.464;11.964;2023-05-07T07:13:56;3.90;;;3.60;;
46931;SDS011;32670;51.464;11.964;2023-05-07T07:16:21;4.13;;;3.73;;
46931;SDS011;32670;51.464;11.964;2023-05-07T07:18:47;4.37;;;3.50;;
46931;SDS011;32670;51.464;11.964;2023-05-07T07:21:12;4.00;;;3.70;;
46931;SDS011;32670;51.464;11.964;2023-05-07T07:23:38;4.03;;;3.67;;
46931;SDS011;32670;51.464;11.964;2023-05-07T07:26:04;4.43;;;4.10;;
46931;SDS011;32670;51.464;11.964;2023-05-07T07:28:30;4.77;;;4.47;;
46931;SDS011;32670;51.464;11.964;2023-05-07T07:30:56;4.90;;;4.47;;
46931;SDS011;32670;51.464;11.964;2023-05-07T07:33:21;5.23;;;4.83;;
46931;SDS011;32670;51.464;11.964;2023-05-07T07:35:47;5.00;;;4.60;;
46931;SDS011;32670;51.464;11.964;2023-05-07T07:38:12;5.40;;;5.00;;
46931;SDS011;32670;51.464;11.964;2023-05-07T07:40:38;5.10;;;4.70;;
46931;SDS011;32670;51.464;11.964;2023-05-07T07:43:04;4.63;;;4.33;;
46931;SDS011;32670;51.464;11.964;2023-05-07T07:45:30;5.40;;;5.00;;
46931;SDS011;32670;51.464;11.964;2023-05-07T07:47:56;5.50;;;5.00;;
46931;SDS011;32670;51.464;11.964;2023-05-07T07:50:21;5.77;;;5.37;;
46931;SDS011;32670;51.464;11.964;2023-05-07T07:52:47;5.60;;;5.13;;
46931;SDS011;32670;51.464;11.964;2023-05-07T07:55:13;5.80;;;5.30;;
46931;SDS011;32670;51.464;11.964;2023-05-07T07:57:42;5.60;;;5.10;;
46931;SDS011;32670;51.464;11.964;2023-05-07T08:00:08;6.10;;;5.60;;
46931;SDS011;32670;51.464;11.964;2023-05-07T08:02:34;6.03;;;5.53;;
46931;SDS011;32670;51.464;11.964;2023-05-07T08:04:59;5.40;;;5.00;;
46931;SDS011;32670;51.464;11.964;2023-05-07T08:07:25;5.50;;;5.10;;
46931;SDS011;32670;51.464;11.964;2023-05-07T08:09:50;6.00;;;5.43;;
46931;SDS011;32670;51.464;11.964;2023-05-07T08:12:16;5.17;;;4.80;;
46931;SDS011;32670;51.464;11.964;2023-05-07T08:14:41;5.20;;;4.80;;
46931;SDS011;32670;51.464;11.964;2023-05-07T08:17:07;5.13;;;4.73;;
46931;SDS011;32670;51.464;11.964;2023-05-07T08:19:34;4.50;;;4.10;;
46931;SDS011;32670;51.464;11.964;2023-05-07T08:22:00;4.80;;;4.30;;
46931;SDS011;32670;51.464;11.964;2023-05-07T08:24:25;4.57;;;4.17;;
46931;SDS011;32670;51.464;11.964;2023-05-07T08:26:51;4.97;;;4.57;;
46931;SDS011;32670;51.464;11.964;2023-05-07T08:29:16;4.87;;;4.47;;
46931;SDS011;32670;51.464;11.964;2023-05-07T08:31:41;4.70;;;4.30;;
46931;SDS011;32670;51.464;11.964;2023-05-07T08:34:07;4.90;;;4.50;;
46931;SDS011;32670;51.464;11.964;2023-05-07T08:36:32;4.50;;;4.13;;
46931;SDS011;32670;51.464;11.964;2023-05-07T08:38:58;4.63;;;4.23;;
46931;SDS011;32670;51.464;11.964;2023-05-07T08:41:24;4.40;;;4.10;;
46931;SDS011;32670;51.464;11.964;2023-05-07T08:43:50;4.33;;;4.00;;
46931;SDS011;32670;51.464;11.964;2023-05-07T08:46:20;4.10;;;3.80;;
46931;SDS011;32670;51.464;11.964;2023-05-07T08:48:49;4.53;;;3.90;;
46931;SDS011;32670;51.464;11.964;2023-05-07T08:51:17;4.67;;;4.27;;
46931;SDS011;32670;51.464;11.964;2023-05-07T08:53:46;4.47;;;4.17;;
46931;SDS011;32670;51.464;11.964;2023-05-07T08:56:15;4.10;;;3.80;;
46931;SDS011;32670;51.464;11.964;2023-05-07T08:58:42;4.20;;;3.90;;
46931;SDS011;32670;51.464;11.964;2023-05-07T09:01:09;4.60;;;4.20;;
46931;SDS011;32670;51.464;11.964;2023-05-07T09:03:38;4.03;;;3.73;;
46931;SDS011;32670;51.464;11.964;2023-05-07T09:06:04;4.07;;;3.77;;
46931;SDS011;32670;51.464;11.964;2023-05-07T09:08:29;4.00;;;3.70;;
46931;SDS011;32670;51.464;11.964;2023-05-07T09:10:57;3.90;;;3.60;;
46931;SDS011;32670;51.464;11.964;2023-05-07T09:13:22;4.23;;;3.93;;
46931;SDS011;32670;51.464;11.964;2023-05-07T09:15:48;4.10;;;3.80;;
46931;SDS011;32670;51.464;11.964;2023-05-07T09:18:13;4.30;;;3.90;;
46931;SDS011;32670;51.464;11.964;2023-05-07T09:20:39;4.00;;;3.70;;
46931;SDS011;32670;51.464;11.964;2023-05-07T09:23:05;4.37;;;4.07;;
46931;SDS011;32670;51.464;11.964;2023-05-07T09:25:32;4.13;;;3.83;;
46931;SDS011;32670;51.464;11.964;2023-05-07T09:27:59;4.10;;;3.80;;
46931;SDS011;32670;51.464;11.964;2023-05-07T09:30:29;4.20;;;3.90;;
46931;SDS011;32670;51.464;11.964;2023-05-07T09:32:58;4.10;;;3.73;;
46931;SDS011;32670;51.464;11.964;2023-05-07T09:35:25;4.03;;;3.70;;
46931;SDS011;32670;51.464;11.964;2023-05-07T09:37:55;4.07;;;3.77;;
46931;SDS011;32670;51.464;11.964;2023-05-07T09:40:23;3.97;;;3.67;;
46931;SDS011;32670;51.464;11.964;2023-05-07T09:42:50;4.10;;;3.80;;
46931;SDS011;32670;51.464;11.964;2023-05-07T09:45:16;4.13;;;3.83;;
46931;SDS011;32670;51.464;11.964;2023-05-07T09:47:53;3.90;;;3.60;;
46931;SDS011;32670;51.464;11.964;2023-05-07T09:50:22;4.40;;;4.10;;
46931;SDS011;32670;51.464;11.964;2023-05-07T09:52:52;3.97;;;3.67;;
46931;SDS011;32670;51.464;11.964;2023-05-07T09:55:20;3.53;;;3.33;;
46931;SDS011;32670;51.464;11.964;2023-05-07T09:57:45;3.83;;;3.53;;
46931;SDS011;32670;51.464;11.964;2023-05-07T10:00:12;3.53;;;3.33;;
46931;SDS011;32670;51.464;11.964;2023-05-07T10:02:40;3.83;;;3.53;;
46931;SDS011;32670;51.464;11.964;2023-05-07T10:05:12;3.83;;;3.53;;
46931;SDS011;32670;51.464;11.964;2023-05-07T10:07:39;4.23;;;3.93;;
46931;SDS011;32670;51.464;11.964;2023-05-07T10:10:05;4.00;;;3.70;;
46931;SDS011;32670;51.464;11.964;2023-05-07T10:12:32;4.00;;;3.70;;
46931;SDS011;32670;51.464;11.964;2023-05-07T10:15:04;4.00;;;3.70;;
46931;SDS011;32670;51.464;11.964;2023-05-07T10:17:35;4.03;;;3.60;;
46931;SDS011;32670;51.464;11.964;2023-05-07T10:20:01;3.67;;;3.47;;
46931;SDS011;32670;51.464;11.964;2023-05-07T10:22:27;4.10;;;3.80;;
46931;SDS011;32670;51.464;11.964;2023-05-07T10:24:55;3.97;;;3.67;;
46931;SDS011;32670;51.464;11.964;2023-05-07T10:27:23;4.50;;;4.10;;
46931;SDS011;32670;51.464;11.964;2023-05-07T10:32:38;3.70;;;3.40;;
46931;SDS011;32670;51.464;11.964;2023-05-07T10:35:22;3.63;;;3.33;;
46931;SDS011;32670;51.464;11.964;2023-05-07T10:37:54;3.90;;;3.60;;
46931;SDS011;32670;51.464;11.964;2023-05-07T10:40:20;3.73;;;3.43;;
46931;SDS011;32670;51.464;11.964;2023-05-07T10:42:53;3.83;;;3.53;;
46931;SDS011;32670;51.464;11.964;2023-05-07T10:45:20;3.63;;;3.33;;
46931;SDS011;32670;51.464;11.964;2023-05-07T10:48:05;3.40;;;3.10;;
46931;SDS011;32670;51.464;11.964;2023-05-07T10:50:32;3.97;;;3.67;;
46931;SDS011;32670;51.464;11.964;2023-05-07T10:55:42;3.60;;;3.30;;
46931;SDS011;32670;51.464;11.964;2023-05-07T10:58:50;3.80;;;3.50;;
46931;SDS011;32670;51.464;11.964;2023-05-07T11:00:59;3.40;;;3.20;;
46931;SDS011;32670;51.464;11.964;2023-05-07T11:03:25;3.70;;;3.40;;
46931;SDS011;32670;51.464;11.964;2023-05-07T11:11:16;3.90;;;3.60;;
46931;SDS011;32670;51.464;11.964;2023-05-07T11:13:45;3.23;;;3.03;;
46931;SDS011;32670;51.464;11.964;2023-05-07T11:16:22;3.60;;;3.37;;
46931;SDS011;32670;51.464;11.964;2023-05-07T11:18:49;3.60;;;3.40;;
46931;SDS011;32670;51.464;11.964;2023-05-07T11:24:08;3.47;;;3.27;;
46931;SDS011;32670;51.464;11.964;2023-05-07T11:27:08;3.53;;;3.30;;
46931;SDS011;32670;51.464;11.964;2023-05-07T11:29:26;3.33;;;3.13;;
46931;SDS011;32670;51.464;11.964;2023-05-07T11:31:54;3.67;;;3.37;;
46931;SDS011;32670;51.464;11.964;2023-05-07T11:34:20;3.73;;;3.43;;
46931;SDS011;32670;51.464;11.964;2023-05-07T11:36:47;3.30;;;3.10;;
46931;SDS011;32670;51.464;11.964;2023-05-07T11:39:23;4.00;;;3.70;;
46931;SDS011;32670;51.464;11.964;2023-05-07T11:41:52;3.60;;;3.30;;
46931;SDS011;32670;51.464;11.964;2023-05-07T11:44:18;3.83;;;3.53;;
46931;SDS011;32670;51.464;11.964;2023-05-07T11:46:43;4.10;;;3.80;;
46931;SDS011;32670;51.464;11.964;2023-05-07T11:49:10;4.27;;;3.87;;
46931;SDS011;32670;51.464;11.964;2023-05-07T11:51:35;3.87;;;3.57;;
46931;SDS011;32670;51.464;11.964;2023-05-07T11:54:03;3.87;;;3.57;;
46931;SDS011;32670;51.464;11.964;2023-05-07T11:56:29;3.90;;;3.60;;
46931;SDS011;32670;51.464;11.964;2023-05-07T11:58:58;3.80;;;3.50;;
46931;SDS011;32670;51.464;11.964;2023-05-07T12:01:24;3.83;;;3.53;;
46931;SDS011;32670;51.464;11.964;2023-05-07T12:03:49;3.80;;;3.50;;
46931;SDS011;32670;51.464;11.964;2023-05-07T12:06:15;4.07;;;3.77;;
46931;SDS011;32670;51.464;11.964;2023-05-07T12:08:41;4.03;;;3.70;;
46931;SDS011;32670;51.464;11.964;2023-05-07T12:11:15;3.67;;;3.37;;
46931;SDS011;32670;51.464;11.964;2023-05-07T12:13:46;3.47;;;3.17;;
46931;SDS011;32670;51.464;11.964;2023-05-07T12:16:12;4.03;;;3.73;;
46931;SDS011;32670;51.464;11.964;2023-05-07T12:18:37;4.20;;;3.90;;
46931;SDS011;32670;51.464;11.964;2023-05-07T12:21:04;4.10;;;3.80;;
46931;SDS011;32670;51.464;11.964;2023-05-07T12:23:31;6.43;;;5.93;;
46931;SDS011;32670;51.464;11.964;2023-05-07T12:25:56;5.13;;;4.60;;
46931;SDS011;32670;51.464;11.964;2023-05-07T12:28:22;5.27;;;4.80;;
46931;SDS011;32670;51.464;11.964;2023-05-07T12:30:48;5.07;;;4.63;;
46931;SDS011;32670;51.464;11.964;2023-05-07T12:33:18;5.37;;;4.90;;
46931;SDS011;32670;51.464;11.964;2023-05-07T12:35:48;4.80;;;4.40;;
46931;SDS011;32670;51.464;11.964;2023-05-07T12:38:14;4.73;;;4.40;;
46931;SDS011;32670;51.464;11.964;2023-05-07T12:40:42;4.63;;;4.30;;
46931;SDS011;32670;51.464;11.964;2023-05-07T12:43:19;4.30;;;4.00;;
46931;SDS011;32670;51.464;11.964;2023-05-07T12:45:49;4.97;;;4.57;;
46931;SDS011;32670;51.464;11.964;2023-05-07T12:48:15;4.73;;;4.33;;
46931;SDS011;32670;51.464;11.964;2023-05-07T12:50:41;4.77;;;4.37;;
46931;SDS011;32670;51.464;11.964;2023-05-07T12:53:07;5.00;;;4.60;;
46931;SDS011;32670;51.464;11.964;2023-05-07T12:55:46;5.03;;;4.63;;
46931;SDS011;32670;51.464;11.964;2023-05-07T12:58:29;4.97;;;4.57;;
46931;SDS011;32670;51.464;11.964;2023-05-07T13:00:58;4.73;;;4.43;;
46931;SDS011;32670;51.464;11.964;2023-05-07T13:05:55;6.13;;;5.53;;
46931;SDS011;32670;51.464;11.964;2023-05-07T13:08:23;6.93;;;5.93;;
46931;SDS011;32670;51.464;11.964;2023-05-07T13:10:53;5.43;;;4.93;;
46931;SDS011;32670;51.464;11.964;2023-05-07T13:13:19;5.50;;;5.00;;
46931;SDS011;32670;51.464;11.964;2023-05-07T13:15:45;5.97;;;5.53;;
46931;SDS011;32670;51.464;11.964;2023-05-07T13:18:12;5.87;;;5.37;;
46931;SDS011;32670;51.464;11.964;2023-05-07T13:20:37;5.80;;;5.30;;
46931;SDS011;32670;51.464;11.964;2023-05-07T13:23:03;5.93;;;5.30;;
46931;SDS011;32670;51.464;11.964;2023-05-07T13:25:29;6.00;;;5.40;;
46931;SDS011;32670;51.464;11.964;2023-05-07T13:27:56;5.80;;;5.30;;
46931;SDS011;32670;51.464;11.964;2023-05-07T13:30:22;5.80;;;5.30;;
46931;SDS011;32670;51.464;11.964;2023-05-07T13:32:47;5.80;;;5.30;;
46931;SDS011;32670;51.464;11.964;2023-05-07T13:35:13;5.00;;;4.60;;
46931;SDS011;32670;51.464;11.964;2023-05-07T13:37:40;5.93;;;5.20;;
46931;SDS011;32670;51.464;11.964;2023-05-07T13:40:06;6.33;;;5.70;;
46931;SDS011;32670;51.464;11.964;2023-05-07T13:42:32;5.73;;;5.23;;
46931;SDS011;32670;51.464;11.964;2023-05-07T13:44:57;6.10;;;5.60;;
46931;SDS011;32670;51.464;11.964;2023-05-07T13:47:23;5.70;;;5.20;;
46931;SDS011;32670;51.464;11.964;2023-05-07T13:49:48;5.37;;;4.97;;
46931;SDS011;32670;51.464;11.964;2023-05-07T13:52:15;5.57;;;5.10;;
46931;SDS011;32670;51.464;11.964;2023-05-07T13:54:40;7.63;;;5.47;;
46931;SDS011;32670;51.464;11.964;2023-05-07T13:57:06;5.30;;;4.90;;
46931;SDS011;32670;51.464;11.964;2023-05-07T13:59:31;5.17;;;4.77;;
46931;SDS011;32670;51.464;11.964;2023-05-07T14:01:57;5.60;;;5.20;;
46931;SDS011;32670;51.464;11.964;2023-05-07T14:04:22;5.50;;;5.00;;
46931;SDS011;32670;51.464;11.964;2023-05-07T14:06:47;5.43;;;5.03;;
46931;SDS011;32670;51.464;11.964;2023-05-07T14:09:13;5.37;;;4.97;;
46931;SDS011;32670;51.464;11.964;2023-05-07T14:11:39;5.53;;;5.13;;
46931;SDS011;32670;51.464;11.964;2023-05-07T14:14:04;5.40;;;5.00;;
46931;SDS011;32670;51.464;11.964;2023-05-07T14:16:30;5.40;;;5.00;;
46931;SDS011;32670;51.464;11.964;2023-05-07T14:18:56;5.30;;;4.90;;
46931;SDS011;32670;51.464;11.964;2023-05-07T14:21:21;5.40;;;5.00;;
46931;SDS011;32670;51.464;11.964;2023-05-07T14:23:47;5.00;;;4.60;;
46931;SDS011;32670;51.464;11.964;2023-05-07T14:26:13;5.70;;;5.20;;
46931;SDS011;32670;51.464;11.964;2023-05-07T14:28:38;5.40;;;5.00;;
46931;SDS011;32670;51.464;11.964;2023-05-07T14:31:04;5.10;;;4.70;;
46931;SDS011;32670;51.464;11.964;2023-05-07T14:33:31;5.50;;;5.10;;
46931;SDS011;32670;51.464;11.964;2023-05-07T14:35:56;5.43;;;5.03;;
46931;SDS011;32670;51.464;11.964;2023-05-07T14:38:22;4.70;;;4.40;;
46931;SDS011;32670;51.464;11.964;2023-05-07T14:40:47;5.47;;;4.97;;
46931;SDS011;32670;51.464;11.964;2023-05-07T14:43:13;4.97;;;4.57;;
46931;SDS011;32670;51.464;11.964;2023-05-07T14:45:38;5.10;;;4.70;;